Highlands Peak, California Weather observations

Data are for observation ending at time listed.
 Day   Time    Ave.   Ave.  Ave.  Vector   Max.   Stn.    Total    Solar   Ave.  
  of    of     Air    Rel.  Wind   Wind    Wind   Baro.  Precip.   Rad.    Soil  
Year   Day     Temp.  Hum.  Speed  Dir.    Gust   Pres.                    Temp. 
2016   (PST)    F      %     mph   deg.    mph     mb.     in.     W/m2     F   
------------------------------------------------------------------------------
 176    9:50   76.4    21    3.2   252      5.6   932.3    0.00     978    82.9
 176   10:00   77.3    20    3.4   262      6.4   932.3    0.00     996    83.2
 176   10:10   77.2    20    3.9   259      6.9   932.3    0.00    1012    83.5
 176   10:20   78.1    21    3.6   268      5.7   932.3    0.00    1026    83.8
 176   10:30   78.1    21    3.6   262      6.1   932.2    0.00    1043    84.1
 176   10:40   78.6    21    4.0   262      6.6   932.2    0.00    1058    84.3
 176   10:50   79.3    20    4.4   258      7.2   932.2    0.00    1066    84.7
 176   11:00   79.2    20    4.7   263      7.1   932.2    0.00    1072    84.9
 176   11:10   79.1    16    4.9   252      6.9   932.2    0.00    1077    85.2
 176   11:20   79.2    12    4.8   256      8.6   932.2    0.00    1083    85.5
 176   11:30   79.9    11    4.8   256      8.3   932.2    0.00    1084    85.7
 176   11:40   80.6    10    5.0   259      8.5   932.2    0.00    1087    85.9
 176   11:50   81.6    12    5.8   251      8.2   932.2    0.00    1089    86.1
 176   12:00   81.8    12    4.9   252      8.6   932.1    0.00    1089    86.3
 176   12:10   82.7    11    4.6   262      8.2   932.1    0.00    1088    86.4
 176   12:20   83.1    10    5.0   252      8.8   932.1    0.00    1085    86.5
 176   12:30   83.2    11    6.3   248      9.4   932.1    0.00    1080    86.5
 176   12:40   83.9    11    6.3   250     10.5   932.1    0.00    1075    86.5
 176   12:50   84.1    11    6.1   260      9.5   932.1    0.00    1068    86.6
 176   13:00   83.8    11    5.6   258      9.6   932.0    0.00    1060    86.7
 176   13:10   84.6    11    5.7   250      9.6   931.9    0.00    1050    86.8
 176   13:20   84.7    11    6.8   257     10.7   931.8    0.00    1038    87.0
 176   13:30   83.3    11    5.9   250      9.1   931.8    0.00     996    87.3
 176   13:40   84.1    11    6.0   269      8.7   931.8    0.00    1011    87.6
 176   13:50   84.3    11    6.6   272     10.2   931.7    0.00     997    88.0
 176   14:00   84.2    11    6.1   261     10.2   931.6    0.00     980    88.4
 176   14:10   84.7    11    6.6   264     10.1   931.6    0.00     962    88.9
 176   14:20   85.4    11    5.8   254      9.3   931.6    0.00     944    89.3
 176   14:30   84.8    11    5.8   270      9.5   931.6    0.00     924    89.7
 176   14:40   85.6    11    6.0   275      9.8   931.5    0.00     901    90.2
 176   14:50   86.0    10    6.0   275     10.3   931.4    0.00     878    90.6
 176   15:00   85.1     9    6.9   258     10.9   931.3    0.00     855    91.1
 176   15:10   85.0    10    6.3   265     10.2   931.2    0.00     830    91.6
 176   15:20   85.4    11    7.7   275     12.4   931.2    0.00     802    91.9
 176   15:30   85.2    12    7.2   276     11.6   931.1    0.00     773    92.4
 176   15:40   84.3    13    6.9   271     12.9   931.1    0.00     745    92.8
 176   15:50   84.5    12    6.8   271     11.4   930.9    0.00     716    93.1
 176   16:00   83.9    12    7.1   272     12.1   930.7    0.00     685    93.6
 176   16:10   85.0    12    7.3   267     14.7   930.6    0.00     653    93.8
 176   16:20   84.4    12    7.0   269     14.6   930.5    0.00     620    94.2
 176   16:30   84.7    12    7.2   277     19.5   930.4    0.00     586    94.5
 176   16:40   83.6    12    9.4   283     14.2   930.2    0.00     550    94.7
 176   16:50   83.5    13    8.2   280     17.3   930.2    0.00     514    95.0
 176   17:00   82.8    14    6.3   282     10.2   930.1    0.00     477    95.2
 176   17:10   82.5    14    5.8   272     10.7   930.0    0.00     440    95.3
 176   17:20   82.6    14    2.9   276      8.0   930.0    0.00     404    95.5
 176   17:30   84.0    13    2.4   283      6.1   930.0    0.00     368    95.6
 176   17:40   83.0    13    2.8   315      5.6   929.9    0.00     331    95.8
 176   17:50   83.2    13    3.6   307      7.7   929.9    0.00     295    95.9
 176   18:00   84.1    12    4.0   316      6.5   929.9    0.00     259    96.0
 176   18:10   84.4    14    3.2   275      5.3   929.9    0.00     224    96.0
 176   18:20   83.6    14    2.9   280      4.7   929.9    0.00     191    96.0
 176   18:30   82.7    14    3.8   293      5.8   930.0    0.00     159    96.0
 176   18:40   81.5    14    3.5   286      6.4   930.0    0.00     129    95.8
 176   18:50   81.2    12    4.5   324      6.5   930.0    0.00     103    95.8
 176   19:00   80.9    11    6.7   309     10.0   929.9    0.00      78    95.7
 176   19:10   79.6    11    7.5   303     10.2   929.9    0.00      54    95.6
 176   19:20   78.6    11    6.1   305      9.1   929.8    0.00      33    95.5
 176   19:30   77.5    12    5.8   299      7.7   929.8    0.00      17    95.3
 176   19:40   76.5    11    5.7   306     10.7   929.8    0.00       4    95.1
 176   19:50   75.1    12    9.1   302     13.8   929.8    0.00       1    94.9
 176   20:00   75.2    11    9.6   309     13.2   929.7    0.00       0    94.8
 176   20:10   74.8    11    5.8   321      9.7   929.8    0.00       0    94.6
 176   20:20   76.0    10    3.4     3      5.8   929.9    0.00       0    94.3
 176   20:30   76.6    10    3.1   341      4.6   929.9    0.00       0    94.0
 176   20:40   76.9    10    3.2     0      6.1   929.9    0.00       0    93.7
 176   20:50   76.8    10    3.0    43      7.1   930.0    0.00       0    93.4
 176   21:00   77.2    10    3.2    47      5.6   930.1    0.00       0    93.1
 176   21:10   78.1    10    4.3    25      6.9   930.1    0.00       0    92.9
 176   21:20   78.1    10    3.5    69      5.3   930.1    0.00       0    92.7
 176   21:30   77.9     9    3.4    69      5.1   930.1    0.00       0    92.4
 176   21:40   78.3     8    2.8   114      5.8   930.1    0.00       0    92.1
 176   21:50   79.0     8    1.3   284      3.6   930.1    0.00       0    91.7
 176   22:00   77.4     9    3.2   293      5.7   930.1    0.00       0    91.3
 176   22:10   76.7     8    3.4   354      5.6   930.1    0.00       0    91.0
 176   22:20   77.2     8    4.2    42      6.5   930.0    0.00       0    90.8
 176   22:30   76.7     8    3.5    48      5.6   930.0    0.00       0    90.5
 176   22:40   77.5     6    3.3    24      6.8   929.9    0.00       0    90.3
 176   22:50   77.8     6    5.3    29      9.2   929.9    0.00       0    90.1
 176   23:00   78.5     4    5.6    22     10.1   929.9    0.00       0    89.9
 176   23:10   78.0     5    6.0    17     10.0   929.8    0.00       0    89.6
 176   23:20   78.4     4    4.2    24      7.7   929.7    0.00       0    89.3
 176   23:30   77.7     5    4.3    24      7.9   929.7    0.00       0    89.0
 176   23:40   77.0     4    5.2   338      7.5   929.6    0.00       0    88.7
 176   23:50   77.0     4    4.6    39      7.3   929.6    0.00       0    88.4
 177    0:00   77.2     4    4.3    67      6.4   929.5    0.00       0    88.2
 177    0:10   78.1     3    3.6    55      5.6   929.5    0.00       0    87.8
 177    0:20   78.4     2    6.0    48     12.2   929.4    0.00       0    87.7
 177    0:30   78.7     2    7.4    47     14.4   929.4    0.00       0    87.5
 177    0:40   77.9     2    8.0    71     13.3   929.3    0.00       0    87.3
 177    0:50   78.0     3    5.8    62     11.3   929.3    0.00       0    87.1
 177    1:00   77.5     5    7.5    66     14.3   929.3    0.00       0    86.8
 177    1:10   77.8     6    8.2    52     18.6   929.2    0.00       0    86.6
 177    1:20   77.7     6    9.2    62     19.7   929.2    0.00       0    86.3
 177    1:30   77.8     5    9.9    51     21.2   929.2    0.00       0    85.9
 177    1:40   77.6     6    9.8    55     19.2   929.2    0.00       0    85.8
 177    1:50   77.6     6   10.8    46     20.2   929.2    0.00       0    85.6
 177    2:00   77.5     7    9.2    45     18.2   929.3    0.00       0    85.3
 177    2:10   77.5     8   12.5    50     22.9   929.2    0.00       0    85.1
 177    2:20   77.5     8   14.0    56     27.5   929.1    0.00       0    84.7
 177    2:30   77.5     8   13.6    53     24.9   929.1    0.00       0    84.4
 177    2:40   77.4     9   11.4    59     28.6   929.1    0.00       0    84.2
 177    2:50   77.1     9   11.9    51     24.8   929.1    0.00       0    84.0
 177    3:00   77.0    10   10.7    50     27.5   929.1    0.00       0    83.8
 177    3:10   77.1    10   10.7    43     20.6   929.1    0.00       0    83.6
 177    3:20   76.6    10    6.0    20     18.6   929.2    0.00       0    83.2
 177    3:30   76.2    10    3.3   324      9.8   929.2    0.00       0    83.1
 177    3:40   75.2    11    2.2   236      9.3   929.3    0.00       0    83.0
 177    3:50   75.3    12    4.8    35     12.3   929.2    0.00       0    82.9
 177    4:00   76.1    12    6.6    19     19.6   929.2    0.00       0    82.7
 177    4:10   75.8    12    4.3     3     16.1   929.3    0.00       0    82.6
 177    4:20   75.2    12    2.1   213      4.4   929.4    0.00       0    82.4
 177    4:30   74.9    13    3.4   277      5.4   929.5    0.00       0    82.2
 177    4:40   73.8    14    3.5   303      6.1   929.5    0.00       1    82.1
 177    4:50   73.1    14    3.3   301      5.3   929.5    0.00       2    82.1
 177    5:00   73.7    14    2.2   279      4.9   929.6    0.00       5    81.9
 177    5:10   74.0    14    3.8   316      8.6   929.6    0.00       9    81.8
 177    5:20   74.7    14    3.5   321      7.5   929.6    0.00      12    81.7
 177    5:30   74.2    15    3.8   350      7.7   929.6    0.00      14    81.6
 177    5:40   74.6    15    3.9   332      9.7   929.7    0.00      16    81.4
 177    5:50   74.0    16    3.6   292      6.6   929.7    0.00      18    81.3
 177    6:00   73.4    18    4.4   300      7.6   929.8    0.00     132    81.2
 177    6:10   74.3    17    4.9   302      7.4   929.8    0.00     238    81.1
 177    6:20   74.2    18    6.2   293      9.6   929.8    0.00     274    81.0
 177    6:30   74.5    18    6.0   306      9.2   929.9    0.00     312    80.9
 177    6:40   75.2    17    7.6   302     10.3   929.9    0.00     351    80.8
 177    6:50   75.8    17    5.6   309      7.7   930.0    0.00     389    80.8
 177    7:00   76.8    17    5.4   293      9.2   930.0    0.00     428    80.7
 177    7:10   76.7    16    4.1   292      6.1   930.0    0.00     467    80.7
 177    7:20   77.3    15    4.0   290      5.8   930.1    0.00     506    80.6
 177    7:30   77.4    16    5.6   287      8.0   930.1    0.00     542    80.6
 177    7:40   77.5    16    4.7   272      6.9   930.1    0.00     559    80.6
 177    7:50   78.3    16    3.4   296      5.3   930.2    0.00     610    80.6
 177    8:00   78.9    14    4.6   295      6.6   930.2    0.00     646    80.7
 177    8:10   79.5    15    3.1   260      6.2   930.3    0.00     680    80.7
 177    8:20   79.3    15    4.3   255      7.7   930.4    0.00     713    80.8
 177    8:30   79.9    16    3.3   265      5.9   930.4    0.00     745    80.9
 177    8:40   80.3    16    4.2   264      7.2   930.4    0.00     775    81.1
 177    8:50   80.0    17    4.7   258      7.1   930.4    0.00     804    81.2
 177    9:00   80.6    16    3.9   236      6.0   930.3    0.00     835    81.4
 177    9:10   81.9    15    2.1   249      4.4   930.3    0.00     869    81.6
 177    9:20   82.8    15    3.7   253      6.4   930.3    0.00     907    81.8
 177    9:30   82.3    16    4.7   252      8.3   930.3    0.00     935    82.0
 177    9:40   82.9    17    3.9   251      6.3   930.3    0.00     959    82.3

Return to Highlands Peak graphs page.


Western Regional Climate Center,wrcc@dri.edu